JTM125 EDDB-ESSA
Flight info
| Callsign | JTM125 |
|---|---|
| Flight time | N/A |
| Altitude | 35000 |
| Route | GERGA M725 RENKI Y89 USEDU BANUB POKEN VIBAR Z227 NILUG |
| Aircraft | B738/M-SDE2FGHIRWY/L |
Departure
| Time | 2026-05-08 08:56 |
|---|---|
| Airport | Berlin Brandenburg Airport (EDDB) |
Arrival
| Time | N/A |
|---|---|
| Airport | Stockholm-Arlanda Airport (ESSA) |
| Time | Latitude | Longitude | Altitude | Speed | Heading |
|---|---|---|---|---|---|
| 2026-05-08 08:38 | 52.36222 | 13.50217 | 141 ft | 0 kts | 248° |
| 2026-05-08 08:47 | 52.36222 | 13.50218 | 141 ft | 0 kts | 248° |
| 2026-05-08 08:47 | 52.36227 | 13.50238 | 140 ft | 5 kts | 248° |
| 2026-05-08 08:48 | 52.36246 | 13.50317 | 140 ft | 5 kts | 248° |
| 2026-05-08 08:48 | 52.36249 | 13.50330 | 140 ft | 1 kts | 222° |
| 2026-05-08 08:48 | 52.36236 | 13.50348 | 140 ft | 4 kts | 110° |
| 2026-05-08 08:48 | 52.36222 | 13.50373 | 140 ft | 0 kts | 158° |
| 2026-05-08 08:50 | 52.36212 | 13.50382 | 140 ft | 5 kts | 150° |
| 2026-05-08 08:50 | 52.36163 | 13.50420 | 140 ft | 8 kts | 156° |
| 2026-05-08 08:51 | 52.36108 | 13.50456 | 140 ft | 8 kts | 159° |
| 2026-05-08 08:51 | 52.36030 | 13.50506 | 140 ft | 16 kts | 158° |
| 2026-05-08 08:51 | 52.35914 | 13.50580 | 140 ft | 18 kts | 158° |
| 2026-05-08 08:51 | 52.35795 | 13.50630 | 140 ft | 17 kts | 199° |
| 2026-05-08 08:52 | 52.35737 | 13.50479 | 142 ft | 15 kts | 248° |
| 2026-05-08 08:52 | 52.35698 | 13.50325 | 143 ft | 14 kts | 249° |
| 2026-05-08 08:52 | 52.35663 | 13.50167 | 143 ft | 14 kts | 250° |
| 2026-05-08 08:52 | 52.35630 | 13.50020 | 146 ft | 13 kts | 248° |
| 2026-05-08 08:53 | 52.35587 | 13.49838 | 146 ft | 21 kts | 249° |
| 2026-05-08 08:53 | 52.35525 | 13.49570 | 149 ft | 27 kts | 248° |
| 2026-05-08 08:53 | 52.35454 | 13.49269 | 146 ft | 28 kts | 249° |
| 2026-05-08 08:53 | 52.35381 | 13.48966 | 146 ft | 28 kts | 249° |
| 2026-05-08 08:54 | 52.35310 | 13.48666 | 146 ft | 28 kts | 248° |
| 2026-05-08 08:54 | 52.35205 | 13.48495 | 146 ft | 19 kts | 162° |
| 2026-05-08 08:54 | 52.35110 | 13.48603 | 146 ft | 8 kts | 105° |
| 2026-05-08 08:54 | 52.35110 | 13.48608 | 146 ft | 0 kts | 105° |
| 2026-05-08 08:55 | 52.35109 | 13.48613 | 146 ft | 4 kts | 105° |
| 2026-05-08 08:55 | 52.35092 | 13.48730 | 146 ft | 11 kts | 100° |
| 2026-05-08 08:55 | 52.35080 | 13.48867 | 145 ft | 13 kts | 97° |
| 2026-05-08 08:55 | 52.35069 | 13.49018 | 144 ft | 13 kts | 84° |
| 2026-05-08 08:56 | 52.35078 | 13.49076 | 144 ft | 0 kts | 68° |
| 2026-05-08 08:56 | 52.35206 | 13.49618 | 146 ft | 99 kts | 70° |
| 2026-05-08 08:56 | 52.35560 | 13.51092 | 159 ft | 176 kts | 67° |
| 2026-05-08 08:56 | 52.35960 | 13.53080 | 939 ft | 193 kts | 82° |
| 2026-05-08 08:57 | 52.35862 | 13.55148 | 2282 ft | 191 kts | 103° |
| 2026-05-08 08:57 | 52.35150 | 13.57378 | 2629 ft | 245 kts | 128° |
| 2026-05-08 08:57 | 52.33904 | 13.59158 | 4000 ft | 249 kts | 147° |
| 2026-05-08 08:57 | 52.32453 | 13.60546 | 5012 ft | 245 kts | 141° |
| 2026-05-08 08:58 | 52.31417 | 13.62686 | 5000 ft | 239 kts | 107° |
| 2026-05-08 08:58 | 52.31278 | 13.65230 | 4997 ft | 221 kts | 80° |
| 2026-05-08 08:58 | 52.31688 | 13.67547 | 4988 ft | 208 kts | 68° |
| 2026-05-08 08:58 | 52.32196 | 13.69741 | 4960 ft | 202 kts | 70° |
| 2026-05-08 08:59 | 52.32755 | 13.71802 | 4894 ft | 199 kts | 50° |
| 2026-05-08 08:59 | 52.33954 | 13.73026 | 5055 ft | 221 kts | 15° |
| 2026-05-08 08:59 | 52.35501 | 13.73490 | 5671 ft | 234 kts | 11° |
| 2026-05-08 08:59 | 52.37157 | 13.74005 | 6276 ft | 248 kts | 13° |
| 2026-05-08 09:00 | 52.38870 | 13.74661 | 6873 ft | 262 kts | 14° |
| 2026-05-08 09:00 | 52.40674 | 13.75400 | 7397 ft | 279 kts | 15° |
| 2026-05-08 09:00 | 52.42620 | 13.76202 | 7930 ft | 296 kts | 14° |
| 2026-05-08 09:00 | 52.44661 | 13.77034 | 8421 ft | 313 kts | 14° |
| 2026-05-08 09:01 | 52.46832 | 13.77904 | 8885 ft | 329 kts | 14° |
| 2026-05-08 09:01 | 52.49097 | 13.78806 | 9435 ft | 342 kts | 14° |
| 2026-05-08 09:01 | 52.51439 | 13.79746 | 10137 ft | 350 kts | 14° |
| 2026-05-08 09:01 | 52.53785 | 13.80698 | 10900 ft | 355 kts | 14° |
| 2026-05-08 09:02 | 52.56193 | 13.81677 | 11711 ft | 359 kts | 14° |
| 2026-05-08 09:02 | 52.58635 | 13.82673 | 12520 ft | 364 kts | 14° |
| 2026-05-08 09:02 | 52.61086 | 13.83677 | 13312 ft | 369 kts | 13° |
| 2026-05-08 09:02 | 52.63583 | 13.84700 | 14102 ft | 375 kts | 13° |
| 2026-05-08 09:03 | 52.66091 | 13.85726 | 14924 ft | 379 kts | 13° |
| 2026-05-08 09:03 | 52.68666 | 13.86781 | 15770 ft | 384 kts | 13° |
| 2026-05-08 09:03 | 52.71231 | 13.87833 | 16580 ft | 388 kts | 13° |
| 2026-05-08 09:03 | 52.73852 | 13.88908 | 17380 ft | 392 kts | 13° |
| 2026-05-08 09:04 | 52.76516 | 13.90002 | 18174 ft | 396 kts | 13° |
| 2026-05-08 09:04 | 52.79188 | 13.91100 | 18934 ft | 401 kts | 13° |
| 2026-05-08 09:04 | 52.81906 | 13.92216 | 19681 ft | 406 kts | 13° |
| 2026-05-08 09:04 | 52.84640 | 13.93340 | 20389 ft | 411 kts | 13° |
| 2026-05-08 09:05 | 52.87444 | 13.94492 | 21060 ft | 416 kts | 13° |
| 2026-05-08 09:05 | 52.90255 | 13.95633 | 21605 ft | 424 kts | 12° |
| 2026-05-08 09:05 | 52.93168 | 13.96569 | 22248 ft | 429 kts | 8° |
| 2026-05-08 09:05 | 52.96130 | 13.97262 | 22891 ft | 433 kts | 6° |
| 2026-05-08 09:06 | 52.99110 | 13.97827 | 23547 ft | 437 kts | 5° |
| 2026-05-08 09:06 | 53.02152 | 13.98348 | 24203 ft | 441 kts | 4° |
| 2026-05-08 09:06 | 53.05171 | 13.98851 | 24860 ft | 445 kts | 4° |
| 2026-05-08 09:06 | 53.08256 | 13.99369 | 25505 ft | 448 kts | 4° |
| 2026-05-08 09:07 | 53.11368 | 13.99903 | 26156 ft | 451 kts | 5° |
| 2026-05-08 09:07 | 53.14475 | 14.00449 | 26971 ft | 450 kts | 5° |
| 2026-05-08 09:07 | 53.17551 | 14.01001 | 27826 ft | 447 kts | 5° |
| 2026-05-08 09:07 | 53.20627 | 14.01561 | 28567 ft | 446 kts | 5° |
| 2026-05-08 09:08 | 53.23712 | 14.02127 | 29312 ft | 445 kts | 5° |
| 2026-05-08 09:08 | 53.26778 | 14.02694 | 29978 ft | 445 kts | 5° |
| 2026-05-08 09:08 | 53.29847 | 14.03265 | 30636 ft | 445 kts | 5° |
| 2026-05-08 09:08 | 53.32945 | 14.03843 | 31289 ft | 443 kts | 5° |
| 2026-05-08 09:09 | 53.36050 | 14.04425 | 31923 ft | 440 kts | 5° |
| 2026-05-08 09:09 | 53.39083 | 14.04994 | 32448 ft | 439 kts | 5° |
| 2026-05-08 09:09 | 53.42145 | 14.05570 | 32961 ft | 438 kts | 5° |
| 2026-05-08 09:09 | 53.45134 | 14.06132 | 33344 ft | 438 kts | 5° |
| 2026-05-08 09:10 | 53.48143 | 14.06698 | 33712 ft | 437 kts | 5° |
| 2026-05-08 09:10 | 53.51150 | 14.07265 | 34071 ft | 437 kts | 5° |
| 2026-05-08 09:10 | 53.54157 | 14.07834 | 34435 ft | 436 kts | 5° |
| 2026-05-08 09:10 | 53.57162 | 14.08375 | 34775 ft | 435 kts | 4° |
| 2026-05-08 09:11 | 53.60176 | 14.08692 | 35074 ft | 435 kts | 0° |
| 2026-05-08 09:11 | 53.63235 | 14.08560 | 35191 ft | 438 kts | 354° |
| 2026-05-08 09:11 | 53.69174 | 14.06966 | 35211 ft | 433 kts | 347° |
| 2026-05-08 09:12 | 53.75019 | 14.04702 | 35213 ft | 434 kts | 345° |
| 2026-05-08 09:12 | 53.80873 | 14.02337 | 35210 ft | 435 kts | 345° |
| 2026-05-08 09:13 | 53.86766 | 14.00002 | 35214 ft | 436 kts | 346° |
| 2026-05-08 09:13 | 53.92706 | 13.98055 | 35213 ft | 435 kts | 353° |
| 2026-05-08 09:14 | 53.95692 | 13.98015 | 35214 ft | 437 kts | 5° |
| 2026-05-08 09:14 | 53.98670 | 13.98951 | 35218 ft | 438 kts | 14° |
| 2026-05-08 09:14 | 54.04486 | 14.02248 | 35222 ft | 439 kts | 19° |
| 2026-05-08 09:15 | 54.10181 | 14.05985 | 35227 ft | 439 kts | 20° |
| 2026-05-08 09:15 | 54.15881 | 14.09781 | 35226 ft | 439 kts | 20° |
| 2026-05-08 09:16 | 54.21555 | 14.13534 | 35223 ft | 440 kts | 20° |
| 2026-05-08 09:16 | 54.27279 | 14.17295 | 35218 ft | 440 kts | 20° |
| 2026-05-08 09:17 | 54.32977 | 14.21029 | 35227 ft | 440 kts | 20° |
| 2026-05-08 09:17 | 54.38643 | 14.24744 | 35225 ft | 437 kts | 20° |
| 2026-05-08 09:18 | 54.44297 | 14.28458 | 35232 ft | 434 kts | 20° |
| 2026-05-08 09:18 | 54.49878 | 14.32257 | 35238 ft | 433 kts | 22° |
| 2026-05-08 09:19 | 54.55380 | 14.36346 | 35233 ft | 432 kts | 23° |
| 2026-05-08 09:19 | 54.60910 | 14.40532 | 35238 ft | 435 kts | 24° |
| 2026-05-08 09:20 | 54.66454 | 14.44718 | 35229 ft | 435 kts | 23° |
| 2026-05-08 09:20 | 54.71951 | 14.48855 | 35231 ft | 435 kts | 23° |
| 2026-05-08 09:21 | 54.77501 | 14.53029 | 35235 ft | 439 kts | 23° |
| 2026-05-08 09:22 | 54.94942 | 14.64607 | 35246 ft | 458 kts | 18° |
| 2026-05-08 09:23 | 54.97966 | 14.66412 | 35245 ft | 462 kts | 19° |
| 2026-05-08 09:23 | 55.03982 | 14.70049 | 35255 ft | 460 kts | 20° |
| 2026-05-08 09:24 | 55.10019 | 14.73758 | 35261 ft | 460 kts | 20° |
| 2026-05-08 09:24 | 55.16042 | 14.77498 | 35265 ft | 459 kts | 20° |
| 2026-05-08 09:25 | 55.22028 | 14.81238 | 35255 ft | 458 kts | 20° |
| 2026-05-08 09:25 | 55.28062 | 14.85025 | 35261 ft | 458 kts | 20° |
| 2026-05-08 09:26 | 55.34012 | 14.88773 | 35259 ft | 458 kts | 20° |
| 2026-05-08 09:26 | 55.39997 | 14.92556 | 35262 ft | 457 kts | 20° |
| 2026-05-08 09:27 | 55.45966 | 14.96340 | 35281 ft | 456 kts | 20° |
| 2026-05-08 09:27 | 55.51898 | 15.00112 | 35258 ft | 455 kts | 20° |
| 2026-05-08 09:28 | 55.57824 | 15.03894 | 35277 ft | 456 kts | 20° |
| 2026-05-08 09:28 | 55.63795 | 15.07714 | 35274 ft | 456 kts | 21° |
| 2026-05-08 09:29 | 55.69737 | 15.11529 | 35270 ft | 457 kts | 21° |
| 2026-05-08 09:29 | 55.75690 | 15.15362 | 35272 ft | 456 kts | 21° |
| 2026-05-08 09:30 | 55.81639 | 15.19206 | 35280 ft | 456 kts | 21° |
| 2026-05-08 09:30 | 55.87553 | 15.23041 | 35261 ft | 456 kts | 21° |
| 2026-05-08 09:31 | 55.93521 | 15.26924 | 35280 ft | 458 kts | 21° |
| 2026-05-08 09:31 | 55.99476 | 15.30810 | 35273 ft | 457 kts | 21° |
| 2026-05-08 09:32 | 56.05406 | 15.34692 | 35279 ft | 457 kts | 21° |
| 2026-05-08 09:32 | 56.11366 | 15.38606 | 35268 ft | 456 kts | 21° |
| 2026-05-08 09:33 | 56.17267 | 15.42495 | 35276 ft | 455 kts | 21° |
| 2026-05-08 09:33 | 56.23252 | 15.46453 | 35294 ft | 456 kts | 21° |
| 2026-05-08 09:34 | 56.29143 | 15.50360 | 35286 ft | 455 kts | 21° |
| 2026-05-08 09:34 | 56.35096 | 15.54322 | 35282 ft | 455 kts | 21° |
| 2026-05-08 09:35 | 56.41036 | 15.58289 | 35268 ft | 455 kts | 22° |
| 2026-05-08 09:35 | 56.46934 | 15.62241 | 35287 ft | 455 kts | 22° |
| 2026-05-08 09:36 | 56.52808 | 15.66184 | 35274 ft | 438 kts | 22° |
| 2026-05-08 09:36 | 56.55628 | 15.68077 | 35269 ft | 423 kts | 23° |
| 2026-05-08 09:36 | 56.58357 | 15.69914 | 35273 ft | 418 kts | 23° |
| 2026-05-08 09:37 | 56.63840 | 15.73632 | 35292 ft | 425 kts | 23° |
| 2026-05-08 09:37 | 56.69356 | 15.77446 | 35163 ft | 424 kts | 24° |
| 2026-05-08 09:37 | 56.72086 | 15.79403 | 35044 ft | 423 kts | 24° |
| 2026-05-08 09:38 | 56.74794 | 15.81406 | 34899 ft | 422 kts | 25° |
| 2026-05-08 09:38 | 56.77506 | 15.83476 | 34661 ft | 420 kts | 26° |
| 2026-05-08 09:38 | 56.80176 | 15.85591 | 34444 ft | 420 kts | 27° |
| 2026-05-08 09:38 | 56.82814 | 15.87762 | 34258 ft | 418 kts | 28° |
| 2026-05-08 09:39 | 56.85433 | 15.90001 | 34182 ft | 419 kts | 28° |
| 2026-05-08 09:39 | 56.88069 | 15.92349 | 34285 ft | 422 kts | 29° |
| 2026-05-08 09:39 | 56.90719 | 15.94610 | 34703 ft | 424 kts | 25° |
| 2026-05-08 09:39 | 56.93476 | 15.96377 | 35122 ft | 424 kts | 19° |
| 2026-05-08 09:40 | 56.96334 | 15.97822 | 35289 ft | 428 kts | 17° |
| 2026-05-08 09:40 | 57.02047 | 16.00671 | 35286 ft | 425 kts | 19° |
| 2026-05-08 09:41 | 57.07648 | 16.03950 | 35292 ft | 424 kts | 21° |
| 2026-05-08 09:41 | 57.13248 | 16.07629 | 35300 ft | 425 kts | 23° |
| 2026-05-08 09:42 | 57.18764 | 16.11430 | 35303 ft | 425 kts | 23° |
| 2026-05-08 09:42 | 57.24268 | 16.15279 | 35295 ft | 425 kts | 23° |
| 2026-05-08 09:43 | 57.29806 | 16.19175 | 35298 ft | 426 kts | 23° |
| 2026-05-08 09:43 | 57.35348 | 16.23085 | 35306 ft | 425 kts | 23° |
| 2026-05-08 09:44 | 57.40829 | 16.26962 | 35308 ft | 425 kts | 23° |
| 2026-05-08 09:44 | 57.46360 | 16.30886 | 35305 ft | 425 kts | 23° |
| 2026-05-08 09:45 | 57.51854 | 16.34795 | 35292 ft | 426 kts | 23° |
| 2026-05-08 09:45 | 57.57339 | 16.39001 | 35303 ft | 425 kts | 28° |
| 2026-05-08 09:46 | 57.62481 | 16.44300 | 35300 ft | 424 kts | 33° |
| 2026-05-08 09:46 | 57.67455 | 16.50063 | 35304 ft | 423 kts | 34° |
| 2026-05-08 09:47 | 57.72424 | 16.55938 | 35309 ft | 423 kts | 34° |
| 2026-05-08 09:47 | 57.77408 | 16.61832 | 35313 ft | 424 kts | 34° |
| 2026-05-08 09:48 | 57.82364 | 16.67684 | 35319 ft | 423 kts | 34° |
| 2026-05-08 09:48 | 57.87312 | 16.73528 | 35263 ft | 420 kts | 34° |
| 2026-05-08 09:48 | 57.89749 | 16.76409 | 34906 ft | 417 kts | 34° |
| 2026-05-08 09:49 | 57.92201 | 16.79312 | 34170 ft | 419 kts | 34° |
| 2026-05-08 09:49 | 57.94634 | 16.82199 | 33619 ft | 416 kts | 34° |
| 2026-05-08 09:49 | 57.97080 | 16.85104 | 33078 ft | 413 kts | 34° |
| 2026-05-08 09:49 | 57.99478 | 16.87955 | 32566 ft | 409 kts | 34° |
| 2026-05-08 09:50 | 58.01850 | 16.90779 | 32047 ft | 406 kts | 34° |
| 2026-05-08 09:50 | 58.04234 | 16.93622 | 31545 ft | 402 kts | 34° |
| 2026-05-08 09:50 | 58.06579 | 16.96425 | 30998 ft | 399 kts | 34° |
| 2026-05-08 09:50 | 58.08892 | 16.99193 | 30488 ft | 395 kts | 34° |
| 2026-05-08 09:51 | 58.11192 | 17.01950 | 29897 ft | 393 kts | 34° |
| 2026-05-08 09:51 | 58.13491 | 17.04711 | 29343 ft | 390 kts | 34° |
| 2026-05-08 09:51 | 58.15749 | 17.07427 | 28824 ft | 387 kts | 34° |
| 2026-05-08 09:51 | 58.18002 | 17.10140 | 28253 ft | 385 kts | 34° |
| 2026-05-08 09:52 | 58.20235 | 17.12836 | 27711 ft | 382 kts | 34° |
| 2026-05-08 09:52 | 58.22458 | 17.15522 | 27166 ft | 379 kts | 34° |
| 2026-05-08 09:52 | 58.24671 | 17.18199 | 26625 ft | 377 kts | 34° |
| 2026-05-08 09:52 | 58.26862 | 17.20854 | 26084 ft | 374 kts | 33° |
| 2026-05-08 09:53 | 58.29022 | 17.23476 | 25597 ft | 370 kts | 33° |
| 2026-05-08 09:53 | 58.31186 | 17.26107 | 25045 ft | 368 kts | 33° |
| 2026-05-08 09:53 | 58.33307 | 17.28688 | 24501 ft | 367 kts | 33° |
| 2026-05-08 09:53 | 58.35439 | 17.31287 | 23938 ft | 365 kts | 33° |
| 2026-05-08 09:54 | 58.37558 | 17.33873 | 23441 ft | 363 kts | 33° |
| 2026-05-08 09:54 | 58.39683 | 17.36470 | 22959 ft | 359 kts | 33° |
| 2026-05-08 09:54 | 58.41757 | 17.39008 | 22474 ft | 356 kts | 33° |
| 2026-05-08 09:54 | 58.43835 | 17.41555 | 21981 ft | 353 kts | 33° |
| 2026-05-08 09:55 | 58.45869 | 17.44053 | 21507 ft | 350 kts | 33° |
| 2026-05-08 09:55 | 58.47907 | 17.46557 | 21016 ft | 347 kts | 33° |
| 2026-05-08 09:55 | 58.49921 | 17.49036 | 20488 ft | 345 kts | 32° |
| 2026-05-08 09:55 | 58.51912 | 17.51491 | 19973 ft | 343 kts | 32° |
| 2026-05-08 09:56 | 58.53905 | 17.53950 | 19547 ft | 338 kts | 32° |
| 2026-05-08 09:56 | 58.55852 | 17.56357 | 19016 ft | 336 kts | 32° |
| 2026-05-08 09:56 | 58.57806 | 17.58775 | 18533 ft | 334 kts | 32° |
| 2026-05-08 09:56 | 58.59729 | 17.61159 | 18088 ft | 330 kts | 32° |
| 2026-05-08 09:57 | 58.63812 | 17.64728 | 17353 ft | 315 kts | 15° |
| 2026-05-08 09:57 | 58.65911 | 17.65807 | 16887 ft | 313 kts | 14° |
| 2026-05-08 09:57 | 58.68001 | 17.66852 | 16439 ft | 311 kts | 15° |
| 2026-05-08 09:58 | 58.70072 | 17.67975 | 15976 ft | 309 kts | 16° |
| 2026-05-08 09:58 | 58.72115 | 17.69169 | 15516 ft | 307 kts | 17° |
| 2026-05-08 09:58 | 58.74128 | 17.70394 | 15049 ft | 305 kts | 17° |
| 2026-05-08 09:58 | 58.76138 | 17.71639 | 14615 ft | 302 kts | 17° |
| 2026-05-08 09:59 | 58.78121 | 17.72872 | 14141 ft | 301 kts | 17° |
| 2026-05-08 09:59 | 58.80094 | 17.74098 | 13732 ft | 298 kts | 17° |
| 2026-05-08 09:59 | 58.82044 | 17.75307 | 13307 ft | 296 kts | 18° |
| 2026-05-08 09:59 | 58.83989 | 17.76514 | 12874 ft | 294 kts | 18° |
| 2026-05-08 10:00 | 58.85921 | 17.77712 | 12436 ft | 292 kts | 18° |
| 2026-05-08 10:00 | 58.87514 | 17.78701 | 12114 ft | 290 kts | 18° |
| 2026-05-08 10:00 | 58.89419 | 17.79885 | 11707 ft | 288 kts | 18° |
| 2026-05-08 10:00 | 58.91292 | 17.81051 | 11311 ft | 286 kts | 18° |
| 2026-05-08 10:01 | 58.93177 | 17.82226 | 10918 ft | 284 kts | 18° |
| 2026-05-08 10:01 | 58.95054 | 17.83396 | 10543 ft | 282 kts | 18° |
| 2026-05-08 10:01 | 58.96903 | 17.84551 | 10155 ft | 280 kts | 18° |
| 2026-05-08 10:01 | 58.98749 | 17.85705 | 9727 ft | 279 kts | 18° |
| 2026-05-08 10:02 | 59.00579 | 17.86850 | 9363 ft | 277 kts | 18° |
| 2026-05-08 10:02 | 59.02386 | 17.87982 | 8962 ft | 275 kts | 18° |
| 2026-05-08 10:02 | 59.04212 | 17.89127 | 8574 ft | 274 kts | 18° |
| 2026-05-08 10:02 | 59.06004 | 17.90253 | 8192 ft | 272 kts | 19° |
| 2026-05-08 10:03 | 59.07801 | 17.91383 | 7796 ft | 270 kts | 19° |
| 2026-05-08 10:03 | 59.09572 | 17.92498 | 7422 ft | 268 kts | 19° |
| 2026-05-08 10:03 | 59.11309 | 17.93593 | 7342 ft | 265 kts | 19° |
| 2026-05-08 10:03 | 59.13097 | 17.94721 | 7353 ft | 268 kts | 19° |
| 2026-05-08 10:04 | 59.14849 | 17.95828 | 7339 ft | 266 kts | 19° |
| 2026-05-08 10:04 | 59.16616 | 17.96945 | 7334 ft | 268 kts | 19° |
| 2026-05-08 10:04 | 59.18382 | 17.98062 | 7336 ft | 268 kts | 19° |
| 2026-05-08 10:04 | 59.20148 | 17.99181 | 7340 ft | 268 kts | 19° |
| 2026-05-08 10:05 | 59.21928 | 18.00310 | 7336 ft | 269 kts | 19° |
| 2026-05-08 10:05 | 59.23693 | 18.01430 | 7341 ft | 269 kts | 19° |
| 2026-05-08 10:05 | 59.25468 | 18.02559 | 7315 ft | 269 kts | 19° |
| 2026-05-08 10:05 | 59.27256 | 18.03696 | 7337 ft | 270 kts | 19° |
| 2026-05-08 10:06 | 59.29025 | 18.04823 | 7339 ft | 270 kts | 19° |
| 2026-05-08 10:06 | 59.30810 | 18.05961 | 7339 ft | 271 kts | 19° |
| 2026-05-08 10:06 | 59.32599 | 18.07103 | 7338 ft | 271 kts | 19° |
| 2026-05-08 10:06 | 59.34380 | 18.08241 | 7337 ft | 271 kts | 19° |
| 2026-05-08 10:07 | 59.36172 | 18.09387 | 7337 ft | 272 kts | 19° |
| 2026-05-08 10:07 | 59.37964 | 18.10536 | 7336 ft | 271 kts | 19° |
| 2026-05-08 10:07 | 59.39755 | 18.11684 | 7337 ft | 271 kts | 19° |
| 2026-05-08 10:07 | 59.41539 | 18.12830 | 7337 ft | 270 kts | 19° |
| 2026-05-08 10:08 | 59.43316 | 18.13971 | 7335 ft | 270 kts | 19° |
| 2026-05-08 10:08 | 59.45109 | 18.15125 | 7336 ft | 271 kts | 19° |
| 2026-05-08 10:08 | 59.46895 | 18.16275 | 7337 ft | 270 kts | 19° |
| 2026-05-08 10:08 | 59.48653 | 18.17409 | 7334 ft | 270 kts | 19° |
| 2026-05-08 10:09 | 59.50460 | 18.18574 | 7334 ft | 271 kts | 19° |
| 2026-05-08 10:09 | 59.52255 | 18.19734 | 7333 ft | 275 kts | 18° |
| 2026-05-08 10:09 | 59.54093 | 18.20739 | 7272 ft | 272 kts | 13° |
| 2026-05-08 10:09 | 59.55902 | 18.21455 | 7090 ft | 264 kts | 11° |
| 2026-05-08 10:10 | 59.57684 | 18.22049 | 6998 ft | 252 kts | 10° |
| 2026-05-08 10:10 | 59.59363 | 18.22605 | 6872 ft | 243 kts | 11° |
| 2026-05-08 10:10 | 59.61006 | 18.23177 | 6609 ft | 241 kts | 11° |
| 2026-05-08 10:10 | 59.62656 | 18.23772 | 6313 ft | 240 kts | 11° |
| 2026-05-08 10:11 | 59.64287 | 18.24368 | 6026 ft | 239 kts | 12° |
| 2026-05-08 10:11 | 59.65914 | 18.24964 | 5763 ft | 238 kts | 11° |
| 2026-05-08 10:11 | 59.67534 | 18.25557 | 5484 ft | 237 kts | 12° |
| 2026-05-08 10:11 | 59.69164 | 18.26154 | 5173 ft | 237 kts | 12° |
| 2026-05-08 10:12 | 59.70780 | 18.26746 | 4869 ft | 237 kts | 11° |
| 2026-05-08 10:12 | 59.72391 | 18.27337 | 4574 ft | 237 kts | 11° |
| 2026-05-08 10:12 | 59.74002 | 18.27927 | 4333 ft | 235 kts | 12° |
| 2026-05-08 10:12 | 59.75601 | 18.28514 | 4086 ft | 233 kts | 12° |
| 2026-05-08 10:13 | 59.77169 | 18.29090 | 3832 ft | 231 kts | 12° |
| 2026-05-08 10:13 | 59.78750 | 18.29672 | 3517 ft | 232 kts | 12° |
| 2026-05-08 10:13 | 59.80350 | 18.30263 | 3220 ft | 233 kts | 12° |
| 2026-05-08 10:13 | 59.81934 | 18.30700 | 3038 ft | 228 kts | 2° |
| 2026-05-08 10:14 | 59.83450 | 18.30166 | 2910 ft | 222 kts | 334° |
| 2026-05-08 10:14 | 59.84640 | 18.28346 | 2794 ft | 215 kts | 309° |
| 2026-05-08 10:14 | 59.85462 | 18.25947 | 2672 ft | 207 kts | 294° |
| 2026-05-08 10:14 | 59.85831 | 18.23286 | 2532 ft | 197 kts | 269° |
| 2026-05-08 10:15 | 59.85647 | 18.20674 | 2501 ft | 182 kts | 251° |
| 2026-05-08 10:15 | 59.85198 | 18.18461 | 2517 ft | 165 kts | 238° |
| 2026-05-08 10:15 | 59.84636 | 18.16619 | 2511 ft | 147 kts | 235° |